Time;durP1;ratioP1;P1;durP2;ratioP2;P2;SDS_P1;SDS_P2;PMS_P1;PMS_P2;Temp;Humidity;BMP_temperature;BMP_pressure;BME280_temperature;BME280_humidity;BME280_pressure;Samples;Min_cycle;Max_cycle;Signal;HPM_P1;HPM_P2
2022/12/13 00:01:25;;;;;;;50.53;28.73;;;-0.30;99.90;;;;;;5080875;28;20078;-83
2022/12/13 00:03:55;;;;;;;51.47;28.83;;;-1.60;99.90;;;;;;5112161;28;20108;-83
2022/12/13 00:06:21;;;;;;;46.78;26.75;;;-1.60;99.90;;;;;;5113704;28;20048;-84
2022/12/13 00:08:47;;;;;;;52.90;28.83;;;-1.70;99.90;;;;;;5114871;27;20051;-84
2022/12/13 00:11:13;;;;;;;50.00;27.92;;;-0.30;99.90;;;;;;5113876;28;20044;-84
2022/12/13 00:13:40;;;;;;;47.92;27.23;;;-1.70;99.90;;;;;;5114810;27;20128;-83
2022/12/13 00:16:09;;;;;;;57.33;28.77;;;-1.00;99.90;;;;;;5115885;27;20047;-84
2022/12/13 00:18:35;;;;;;;51.22;28.27;;;-1.70;99.90;;;;;;5089280;28;20048;-84
2022/12/13 00:21:06;;;;;;;49.88;27.98;;;-1.70;99.90;;;;;;5092312;28;20063;-83
2022/12/13 00:23:32;;;;;;;49.28;27.52;;;-1.70;99.90;;;;;;5103822;27;20047;-83
2022/12/13 00:26:05;;;;;;;50.03;28.67;;;-0.20;99.90;;;;;;5115756;27;20417;-83
2022/12/13 00:28:31;;;;;;;50.65;27.40;;;-1.80;99.90;;;;;;5100261;28;20051;-84
2022/12/13 00:31:01;;;;;;;54.80;29.75;;;-1.80;99.90;;;;;;5095820;28;20399;-83
2022/12/13 00:33:28;;;;;;;48.92;28.13;;;-1.90;99.90;;;;;;5112191;27;20075;-84
2022/12/13 00:35:54;;;;;;;52.65;28.15;;;-1.90;99.90;;;;;;5135046;27;20051;-84
2022/12/13 00:38:20;;;;;;;45.97;26.60;;;-1.40;99.90;;;;;;5097170;28;20052;-83
2022/12/13 00:40:46;;;;;;;51.03;27.35;;;-2.00;99.90;;;;;;5107638;27;20138;-82
2022/12/13 00:43:11;;;;;;;46.05;27.02;;;-2.00;99.90;;;;;;5112279;28;20150;-82
2022/12/13 00:45:37;;;;;;;51.00;29.25;;;-0.40;99.90;;;;;;5111156;27;20047;-82
2022/12/13 00:48:04;;;;;;;49.05;28.02;;;-2.10;99.90;;;;;;5099327;27;20053;-82
2022/12/13 00:50:30;;;;;;;50.10;28.23;;;-2.10;99.90;;;;;;5095279;27;20154;-82
2022/12/13 00:52:57;;;;;;;48.47;27.10;;;-2.10;99.90;;;;;;5113771;27;20147;-82
2022/12/13 00:55:23;;;;;;;48.70;27.35;;;-2.00;99.90;;;;;;5099765;28;20079;-82
2022/12/13 00:57:48;;;;;;;49.72;28.05;;;-2.10;99.90;;;;;;5094703;28;20404;-82
2022/12/13 01:00:14;;;;;;;48.20;26.95;;;-1.70;99.90;;;;;;5095244;28;20112;-82
2022/12/13 01:02:40;;;;;;;48.95;27.58;;;-2.20;99.90;;;;;;5112124;28;20058;-82
2022/12/13 01:05:07;;;;;;;46.72;27.70;;;-2.20;99.90;;;;;;5112673;28;20060;-82
2022/12/13 01:07:32;;;;;;;49.42;27.00;;;-2.20;99.90;;;;;;5112250;28;20091;-82
2022/12/13 01:09:58;;;;;;;45.67;26.52;;;-1.10;99.90;;;;;;5112265;28;20089;-82
2022/12/13 01:12:24;;;;;;;46.30;28.08;;;-2.20;99.90;;;;;;5095219;28;20044;-82
2022/12/13 01:14:49;;;;;;;49.03;27.30;;;-1.70;99.90;;;;;;5094645;28;20472;-82
2022/12/13 01:17:15;;;;;;;48.85;28.15;;;-0.70;99.90;;;;;;5094312;28;20052;-82
2022/12/13 01:19:41;;;;;;;45.13;25.88;;;-2.20;99.90;;;;;;5094382;28;20116;-82
2022/12/13 01:22:06;;;;;;;48.58;26.58;;;-2.20;99.90;;;;;;5077558;28;20059;-82
2022/12/13 01:24:33;;;;;;;47.22;26.25;;;-2.20;99.90;;;;;;5095455;28;20621;-82
2022/12/13 01:26:59;;;;;;;44.25;26.67;;;-2.20;99.90;;;;;;5100500;27;20376;-82
2022/12/13 01:29:26;;;;;;;50.30;27.45;;;-0.80;99.90;;;;;;5114375;28;20039;-82
2022/12/13 01:31:52;;;;;;;46.53;26.33;;;-2.30;99.90;;;;;;5101339;27;20059;-82
2022/12/13 01:34:21;;;;;;;46.47;26.50;;;-2.30;99.90;;;;;;5137717;27;20181;-82
2022/12/13 01:36:47;;;;;;;46.45;27.50;;;-2.30;99.90;;;;;;5125567;27;20052;-82
2022/12/13 01:39:15;;;;;;;46.50;26.17;;;-1.20;99.90;;;;;;5100309;27;20135;-83
2022/12/13 01:41:41;;;;;;;46.88;25.40;;;-2.40;99.90;;;;;;5084003;27;20051;-82
2022/12/13 01:44:47;;;;;;;49.53;26.60;;;-0.90;99.90;;;;;;5135108;27;20050;-82
2022/12/13 01:47:15;;;;;;;44.53;25.23;;;-0.60;99.90;;;;;;5082824;28;20055;-82
2022/12/13 01:49:41;;;;;;;47.75;26.25;;;-2.20;99.90;;;;;;5096955;28;20051;-82
2022/12/13 01:52:09;;;;;;;45.45;26.25;;;-2.30;99.90;;;;;;5115220;28;20386;-82
2022/12/13 01:54:39;;;;;;;49.72;26.90;;;-2.30;99.90;;;;;;5116753;28;20044;-82
2022/12/13 01:57:08;;;;;;;45.25;26.38;;;-1.30;99.90;;;;;;5103581;28;20076;-83
2022/12/13 01:59:40;;;;;;;46.70;26.25;;;-2.30;99.90;;;;;;5115375;28;20081;-82
2022/12/13 02:02:08;;;;;;;43.17;24.90;;;-0.40;99.90;;;;;;5107805;28;20055;-82
2022/12/13 02:05:10;;;;;;;49.33;27.00;;;-2.40;99.90;;;;;;5081507;28;20052;-82
2022/12/13 02:07:39;;;;;;;51.00;27.15;;;-2.40;99.90;;;;;;5095430;28;20056;-83
2022/12/13 02:10:06;;;;;;;45.92;26.88;;;-1.30;99.90;;;;;;5098095;28;20464;-82
2022/12/13 02:12:35;;;;;;;47.30;27.35;;;-2.30;99.90;;;;;;5080919;28;20063;-82
2022/12/13 02:15:13;;;;;;;44.45;25.83;;;-0.60;99.90;;;;;;5109866;28;20157;-82
2022/12/13 02:18:04;;;;;;;44.38;25.70;;;-1.00;99.90;;;;;;5095487;28;20093;-82
2022/12/13 02:20:43;;;;;;;45.97;25.27;;;-2.30;99.90;;;;;;5117004;28;20051;-82
2022/12/13 02:23:30;;;;;;;48.38;26.13;;;-2.20;99.90;;;;;;5115787;28;20408;-83
2022/12/13 02:26:05;;;;;;;50.08;27.52;;;-2.30;99.90;;;;;;5116259;28;20048;-82
2022/12/13 02:28:37;;;;;;;44.75;26.02;;;-2.30;99.90;;;;;;5104118;28;20500;-82
2022/12/13 02:31:10;;;;;;;46.85;26.83;;;-2.30;99.90;;;;;;5099403;27;20105;-82
2022/12/13 02:33:56;;;;;;;47.13;26.92;;;-2.40;99.90;;;;;;5100250;27;20134;-82
2022/12/13 02:36:27;;;;;;;48.05;26.83;;;-1.00;99.90;;;;;;5122075;27;20051;-82
2022/12/13 02:39:19;;;;;;;51.55;27.90;;;-2.50;99.90;;;;;;5104463;28;20372;-82
2022/12/13 02:41:50;;;;;;;49.70;27.30;;;-2.50;99.90;;;;;;5109646;27;20063;-82
2022/12/13 02:44:24;;;;;;;44.03;26.70;;;-1.90;99.90;;;;;;5098294;27;20063;-82
2022/12/13 02:47:02;;;;;;;48.50;26.40;;;-2.50;99.90;;;;;;5135396;27;20470;-82
2022/12/13 02:49:32;;;;;;;47.95;28.27;;;-2.60;99.90;;;;;;5095538;27;20052;-82
2022/12/13 02:51:59;;;;;;;44.50;26.10;;;-2.60;99.90;;;;;;5081972;27;20047;-82
2022/12/13 02:54:25;;;;;;;47.70;27.25;;;-1.40;99.90;;;;;;5115436;28;20039;-82
2022/12/13 02:56:58;;;;;;;47.30;26.73;;;-1.20;99.90;;;;;;5097865;28;20067;-82
2022/12/13 02:59:33;;;;;;;44.28;25.77;;;-1.50;99.90;;;;;;5060415;28;20134;-82
2022/12/13 03:02:07;;;;;;;45.47;25.65;;;-2.50;99.90;;;;;;5125435;27;20054;-82
2022/12/13 03:08:21;;;;;;;45.40;27.10;;;-2.50;99.90;;;;;;5120560;27;20155;-82
2022/12/13 03:11:03;;;;;;;43.80;25.42;;;-2.50;99.90;;;;;;5097288;28;20449;-82
2022/12/13 03:13:39;;;;;;;44.53;25.42;;;-2.50;99.90;;;;;;5111830;28;20131;-82
2022/12/13 03:16:29;;;;;;;49.75;26.17;;;-0.90;99.90;;;;;;5124485;27;20124;-82
2022/12/13 03:18:59;;;;;;;46.58;26.75;;;-2.60;99.90;;;;;;5115581;27;20055;-82
2022/12/13 03:21:25;;;;;;;43.58;24.90;;;-0.90;99.90;;;;;;5116750;27;20043;-82
2022/12/13 03:23:52;;;;;;;42.20;24.08;;;-2.50;99.90;;;;;;5133691;27;20101;-81
2022/12/13 03:26:23;;;;;;;42.65;25.20;;;-2.50;99.90;;;;;;5132533;27;20047;-82
2022/12/13 03:28:49;;;;;;;44.80;25.95;;;-2.50;99.90;;;;;;5117729;27;20491;-81
2022/12/13 03:31:15;;;;;;;48.53;25.63;;;-1.90;99.90;;;;;;5128860;27;20101;-82
2022/12/13 03:33:40;;;;;;;44.50;25.08;;;-1.70;99.90;;;;;;5120730;27;20391;-82
2022/12/13 03:36:08;;;;;;;44.58;25.20;;;-0.70;99.90;;;;;;5111246;27;20090;-82
2022/12/13 03:38:34;;;;;;;39.78;24.83;;;-2.60;99.90;;;;;;5095829;28;20059;-82
2022/12/13 03:41:04;;;;;;;41.17;24.35;;;-1.00;99.90;;;;;;5066695;27;20090;-81
2022/12/13 03:43:30;;;;;;;42.53;24.58;;;-2.60;99.90;;;;;;5081974;28;20627;-82
2022/12/13 03:45:56;;;;;;;39.60;23.65;;;-2.40;99.90;;;;;;5115999;27;20059;-82
2022/12/13 03:48:22;;;;;;;38.63;23.52;;;-2.50;99.90;;;;;;5123956;27;20039;-82
2022/12/13 03:50:48;;;;;;;43.08;25.08;;;-2.50;99.90;;;;;;5096131;28;20051;-81
2022/12/13 03:53:14;;;;;;;42.50;23.27;;;-0.70;99.90;;;;;;5110369;28;20183;-81
2022/12/13 03:55:40;;;;;;;44.65;24.40;;;-0.50;99.90;;;;;;5130729;27;20142;-82
2022/12/13 03:58:05;;;;;;;38.90;23.40;;;-1.10;99.90;;;;;;5114806;28;20060;-82
2022/12/13 04:00:31;;;;;;;39.03;23.45;;;-2.50;99.90;;;;;;5113042;28;20054;-82
2022/12/13 04:02:57;;;;;;;39.22;22.45;;;-2.50;99.90;;;;;;5113178;28;20145;-82
2022/12/13 04:05:22;;;;;;;41.75;25.13;;;-2.60;99.90;;;;;;5114122;28;20051;-82
2022/12/13 04:07:48;;;;;;;40.90;24.88;;;-2.60;99.90;;;;;;5095615;28;20489;-82
2022/12/13 04:10:14;;;;;;;40.00;22.55;;;-2.60;99.90;;;;;;5095956;28;20043;-82
2022/12/13 04:15:24;;;;;;;38.78;23.58;;;-2.60;99.90;;;;;;5113983;28;20189;-82
2022/12/13 04:17:50;;;;;;;40.22;23.58;;;-1.20;99.90;;;;;;5078466;28;20134;-82
2022/12/13 04:20:15;;;;;;;43.95;23.50;;;-2.70;99.90;;;;;;5078780;28;20134;-82
2022/12/13 04:22:41;;;;;;;41.95;24.80;;;-0.70;99.90;;;;;;5113657;28;20051;-82
2022/12/13 04:25:07;;;;;;;42.42;23.58;;;-2.60;99.90;;;;;;5095273;28;20055;-82
2022/12/13 04:27:33;;;;;;;40.08;22.75;;;-2.50;99.90;;;;;;5114639;27;20116;-82
2022/12/13 04:29:58;;;;;;;37.28;23.17;;;-2.50;99.90;;;;;;5103204;27;20055;-82
2022/12/13 04:32:24;;;;;;;40.42;24.33;;;-2.50;99.90;;;;;;5126176;27;20083;-82
2022/12/13 04:34:50;;;;;;;39.40;22.75;;;-1.10;99.90;;;;;;5114751;27;20052;-82
2022/12/13 04:37:15;;;;;;;38.88;23.23;;;-2.50;99.90;;;;;;5096352;28;20055;-82
2022/12/13 04:39:41;;;;;;;36.90;22.95;;;-2.50;99.90;;;;;;5095204;28;20499;-82
2022/12/13 04:42:07;;;;;;;39.58;22.70;;;-1.20;99.90;;;;;;5095119;28;20138;-82
2022/12/13 04:44:32;;;;;;;42.45;24.42;;;-1.00;99.90;;;;;;5103012;27;20047;-83
2022/12/13 04:46:58;;;;;;;39.20;23.70;;;-1.20;99.90;;;;;;5131635;27;20108;-82
2022/12/13 04:49:24;;;;;;;43.25;24.85;;;-2.60;99.90;;;;;;5118135;27;20039;-82
2022/12/13 04:51:49;;;;;;;37.85;22.40;;;-1.10;99.90;;;;;;5106189;28;20054;-82
2022/12/13 04:54:15;;;;;;;39.47;24.40;;;-2.60;99.90;;;;;;5075008;28;20055;-82
2022/12/13 04:56:41;;;;;;;37.88;23.35;;;-2.60;99.90;;;;;;5093981;28;20082;-82
2022/12/13 04:59:06;;;;;;;38.50;23.55;;;-2.70;99.90;;;;;;5114708;27;20511;-82
2022/12/13 05:01:33;;;;;;;37.08;23.08;;;-1.60;99.90;;;;;;5118584;27;20108;-82
2022/12/13 05:04:02;;;;;;;36.60;23.63;;;-2.70;99.90;;;;;;5115760;28;20372;-83
2022/12/13 05:06:27;;;;;;;41.60;23.83;;;-2.80;99.90;;;;;;5128076;27;20074;-82
2022/12/13 05:08:53;;;;;;;39.80;23.40;;;-1.70;99.90;;;;;;5103728;28;20043;-82
2022/12/13 05:11:19;;;;;;;39.60;24.20;;;-2.80;99.90;;;;;;5104956;28;20355;-82
2022/12/13 05:13:45;;;;;;;38.03;23.08;;;-2.70;99.90;;;;;;5106950;28;20376;-83
2022/12/13 05:16:11;;;;;;;37.13;22.38;;;-2.70;99.90;;;;;;5117751;28;20077;-83
2022/12/13 05:18:37;;;;;;;37.25;22.60;;;-2.70;99.90;;;;;;5094415;28;20079;-83
2022/12/13 05:21:06;;;;;;;38.53;23.90;;;-2.70;99.90;;;;;;5127787;28;20115;-83
2022/12/13 05:23:32;;;;;;;36.97;22.50;;;-2.70;99.90;;;;;;5114329;28;20043;-83
2022/12/13 05:25:58;;;;;;;36.75;23.30;;;-2.70;99.90;;;;;;5099252;28;20061;-82
2022/12/13 05:28:27;;;;;;;36.50;23.35;;;-1.30;99.90;;;;;;5084248;28;20126;-82
2022/12/13 05:30:54;;;;;;;36.67;23.90;;;-2.60;99.90;;;;;;5092102;28;20084;-83
2022/12/13 05:33:21;;;;;;;36.22;22.40;;;-1.60;99.90;;;;;;5129001;28;20075;-83
2022/12/13 05:35:46;;;;;;;38.10;24.20;;;-0.70;99.90;;;;;;5098916;28;20055;-82
2022/12/13 05:38:12;;;;;;;36.08;23.50;;;-1.00;99.90;;;;;;5094545;28;20054;-83
2022/12/13 05:40:38;;;;;;;40.08;23.23;;;-2.70;99.90;;;;;;5081701;28;20134;-82
2022/12/13 05:43:04;;;;;;;39.90;24.27;;;-2.70;99.90;;;;;;5114448;28;20151;-83
2022/12/13 05:45:30;;;;;;;37.97;23.85;;;-2.70;99.90;;;;;;5100766;28;20051;-83
2022/12/13 05:47:56;;;;;;;39.03;23.95;;;-2.70;99.90;;;;;;5105846;28;20380;-83
2022/12/13 05:50:23;;;;;;;36.72;23.90;;;-1.00;99.90;;;;;;5095594;28;20458;-83
2022/12/13 05:52:49;;;;;;;39.75;23.13;;;-2.70;99.90;;;;;;5096316;28;20074;-83
2022/12/13 05:55:15;;;;;;;41.17;24.55;;;-2.70;99.90;;;;;;5102788;28;20238;-83
2022/12/13 05:57:40;;;;;;;36.47;23.10;;;-2.70;99.90;;;;;;5090409;28;20497;-82
2022/12/13 06:00:08;;;;;;;38.72;24.83;;;-2.70;99.90;;;;;;5098427;28;20117;-82
2022/12/13 06:02:42;;;;;;;38.20;23.98;;;-2.70;99.90;;;;;;5111151;28;20101;-82
2022/12/13 06:05:11;;;;;;;38.60;23.33;;;-2.70;99.90;;;;;;5094294;28;20078;-81
2022/12/13 06:07:37;;;;;;;41.72;23.73;;;-1.00;99.90;;;;;;5111953;28;20472;-82
2022/12/13 06:10:04;;;;;;;42.65;26.05;;;-2.70;99.90;;;;;;5112829;28;20055;-83
2022/12/13 06:12:32;;;;;;;39.88;24.65;;;-2.70;99.90;;;;;;5100693;28;20060;-83
2022/12/13 06:14:58;;;;;;;43.55;25.33;;;;;;;;;;5115656;28;20059;-85
2022/12/13 06:17:24;;;;;;;40.97;25.40;;;-2.80;99.90;;;;;;5079997;28;20488;-85
2022/12/13 06:19:50;;;;;;;41.08;25.20;;;-2.80;99.90;;;;;;5081108;28;20055;-85
2022/12/13 06:22:17;;;;;;;39.28;24.40;;;-2.80;99.90;;;;;;5097349;28;20563;-83
2022/12/13 06:24:43;;;;;;;37.10;23.33;;;-0.90;99.90;;;;;;5097592;28;20167;-83
2022/12/13 06:27:08;;;;;;;43.08;25.58;;;-2.80;99.90;;;;;;5115492;28;20496;-83
2022/12/13 06:29:34;;;;;;;40.17;25.10;;;-2.80;99.90;;;;;;5097383;28;20048;-83
2022/12/13 06:32:01;;;;;;;41.05;24.70;;;-1.10;99.90;;;;;;5117511;27;20055;-83
2022/12/13 06:34:28;;;;;;;36.63;24.73;;;-2.70;99.90;;;;;;5112907;27;20043;-83
2022/12/13 06:36:53;;;;;;;39.25;25.13;;;-2.70;99.90;;;;;;5093492;28;20080;-83
2022/12/13 06:39:20;;;;;;;39.83;24.00;;;-2.80;99.90;;;;;;5096967;28;20056;-83
2022/12/13 06:41:45;;;;;;;37.78;23.13;;;-1.50;99.90;;;;;;5067949;28;20052;-83
2022/12/13 06:44:11;;;;;;;41.00;24.60;;;-2.80;99.90;;;;;;5111123;27;20062;-83
2022/12/13 06:46:37;;;;;;;40.88;24.42;;;-2.80;99.90;;;;;;5116080;27;20050;-83
2022/12/13 06:49:03;;;;;;;41.95;24.98;;;-2.80;99.90;;;;;;5097815;28;20051;-82
2022/12/13 06:51:29;;;;;;;40.50;23.63;;;-1.00;99.90;;;;;;5099343;27;20051;-86
2022/12/13 06:53:55;;;;;;;40.47;24.40;;;-0.90;99.90;;;;;;5116641;27;20046;-87
2022/12/13 06:56:21;;;;;;;41.30;24.83;;;-1.80;99.90;;;;;;5101939;27;20063;-88
2022/12/13 06:58:47;;;;;;;40.03;25.80;;;-1.00;99.90;;;;;;5083030;28;20330;-87
2022/12/13 07:01:16;;;;;;;41.38;25.17;;;-2.90;99.90;;;;;;5094121;27;20051;-88
2022/12/13 07:03:42;;;;;;;36.35;23.85;;;-2.80;99.90;;;;;;5089256;27;20047;-86
2022/12/13 07:06:19;;;;;;;38.85;23.67;;;-1.00;99.90;;;;;;5091658;28;20408;-86
2022/12/13 07:08:51;;;;;;;40.65;23.67;;;-2.80;99.90;;;;;;5115984;27;20138;-87
2022/12/13 07:11:19;;;;;;;42.83;25.17;;;-1.00;99.90;;;;;;5105734;27;20050;-89
2022/12/13 07:13:45;;;;;;;41.03;24.23;;;-2.80;99.90;;;;;;5102212;27;20510;-87
2022/12/13 07:16:12;;;;;;;39.28;24.85;;;-2.80;99.90;;;;;;5101414;27;20035;-87
2022/12/13 07:18:38;;;;;;;38.88;25.02;;;-1.60;99.90;;;;;;5101465;27;20086;-86
2022/12/13 07:21:09;;;;;;;40.80;25.52;;;-2.80;99.90;;;;;;5105677;28;20132;-87
2022/12/13 07:23:35;;;;;;;42.08;25.35;;;-2.80;99.90;;;;;;5091634;27;20069;-87
2022/12/13 07:26:01;;;;;;;40.00;25.45;;;-2.80;99.90;;;;;;5118897;27;20055;-87
2022/12/13 07:28:28;;;;;;;41.05;25.20;;;-2.30;99.90;;;;;;5100901;27;20384;-87
2022/12/13 07:30:54;;;;;;;41.25;25.15;;;-2.80;99.90;;;;;;5101857;27;20483;-87
2022/12/13 07:33:20;;;;;;;42.15;24.20;;;-0.80;99.90;;;;;;5100221;27;20055;-88
2022/12/13 07:35:45;;;;;;;39.53;25.13;;;-0.80;99.90;;;;;;5101011;27;20054;-88
2022/12/13 07:38:11;;;;;;;45.05;24.30;;;-2.80;99.90;;;;;;5101072;27;20073;-88
2022/12/13 07:40:39;;;;;;;39.80;24.15;;;-2.80;99.90;;;;;;5086588;28;20051;-87
2022/12/13 07:43:05;;;;;;;38.00;23.38;;;-1.60;99.90;;;;;;5081233;27;20044;-87
2022/12/13 07:45:31;;;;;;;45.78;25.15;;;-2.80;99.90;;;;;;5088711;28;20071;-87
2022/12/13 07:47:57;;;;;;;41.92;24.88;;;-2.80;99.90;;;;;;5060167;28;20051;-87
2022/12/13 07:50:23;;;;;;;39.85;24.02;;;-1.10;99.90;;;;;;5082332;28;20054;-87
2022/12/13 07:52:50;;;;;;;39.67;24.65;;;-2.80;99.90;;;;;;5097016;28;20508;-87
2022/12/13 07:55:16;;;;;;;40.42;24.75;;;-2.80;99.90;;;;;;5099588;28;20059;-88
2022/12/13 07:57:43;;;;;;;41.55;23.88;;;-2.80;99.90;;;;;;5114947;28;20062;-87
2022/12/13 08:00:09;;;;;;;37.90;23.48;;;-2.80;99.90;;;;;;5115154;28;20052;-86
2022/12/13 08:02:35;;;;;;;41.70;24.75;;;-2.70;99.90;;;;;;5114132;28;20055;-89
2022/12/13 08:05:00;;;;;;;41.47;24.35;;;-2.80;99.90;;;;;;5096818;28;20048;-86
2022/12/13 08:07:26;;;;;;;40.55;23.63;;;-1.00;99.90;;;;;;5115302;28;20135;-88
2022/12/13 08:09:52;;;;;;;38.40;23.77;;;-2.60;99.90;;;;;;5102690;27;20415;-89
2022/12/13 08:12:17;;;;;;;37.45;22.65;;;-2.50;99.90;;;;;;5100001;27;20077;-88
2022/12/13 08:14:43;;;;;;;40.55;24.50;;;-1.00;99.90;;;;;;5101118;27;20493;-81
2022/12/13 08:17:09;;;;;;;40.25;24.05;;;-3.00;99.90;;;;;;5134660;27;20051;-83
2022/12/13 08:19:34;;;;;;;41.25;23.65;;;-2.50;99.90;;;;;;5116529;27;20086;-82
2022/12/13 08:22:01;;;;;;;40.55;24.02;;;-0.80;99.90;;;;;;5133335;27;20411;-83
2022/12/13 08:24:28;;;;;;;41.78;24.45;;;-1.10;99.90;;;;;;5114865;27;20059;-81
2022/12/13 08:26:59;;;;;;;41.58;25.15;;;-0.50;99.90;;;;;;5100708;27;20059;-82
2022/12/13 08:29:25;;;;;;;40.78;24.75;;;-1.10;99.90;;;;;;5078655;28;20473;-84
2022/12/13 08:31:51;;;;;;;43.17;24.23;;;-0.60;99.90;;;;;;5101566;28;20048;-83
2022/12/13 08:34:17;;;;;;;43.08;25.63;;;-0.80;99.90;;;;;;5091575;28;20468;-84
2022/12/13 08:36:43;;;;;;;41.38;24.85;;;-1.50;99.90;;;;;;5091144;28;20051;-84
2022/12/13 08:39:09;;;;;;;42.20;24.38;;;-2.20;99.90;;;;;;5074749;28;20117;-84
2022/12/13 08:41:34;;;;;;;38.60;24.90;;;-1.10;99.90;;;;;;5076775;28;20484;-85
2022/12/13 08:44:00;;;;;;;44.88;25.70;;;-2.10;99.90;;;;;;5076730;28;20113;-84
2022/12/13 08:46:26;;;;;;;44.03;25.50;;;-2.10;99.90;;;;;;5075400;28;20052;-85
2022/12/13 08:48:54;;;;;;;42.05;25.85;;;-0.40;99.90;;;;;;5093057;28;20129;-85
2022/12/13 08:51:24;;;;;;;41.95;24.77;;;;;;;;;;5076211;28;20044;-85
2022/12/13 08:53:50;;;;;;;43.40;26.15;;;-1.80;99.90;;;;;;5076152;28;20047;-85
2022/12/13 08:56:20;;;;;;;41.70;24.42;;;-0.30;99.90;;;;;;5078151;28;20039;-85
2022/12/13 08:58:50;;;;;;;39.97;24.90;;;-2.90;99.90;;;;;;5095293;28;20499;-86
2022/12/13 09:01:16;;;;;;;44.00;24.40;;;0.50;99.90;;;;;;5095747;28;20051;-85
2022/12/13 09:03:42;;;;;;;40.72;24.02;;;0.20;99.90;;;;;;5078110;28;20055;-86
2022/12/13 09:06:10;;;;;;;42.92;26.15;;;0.40;99.90;;;;;;5095151;28;20048;-85
2022/12/13 09:08:37;;;;;;;40.97;25.98;;;-1.00;99.90;;;;;;5097568;28;20051;-85
2022/12/13 09:11:04;;;;;;;40.05;25.10;;;0.90;99.90;;;;;;5115056;28;20044;-86
2022/12/13 09:13:33;;;;;;;43.45;25.00;;;-1.10;99.90;;;;;;5111878;28;20059;-86
2022/12/13 09:16:06;;;;;;;41.00;23.80;;;-0.90;99.90;;;;;;5076982;28;20051;-86
2022/12/13 09:18:32;;;;;;;39.42;25.60;;;-0.80;99.90;;;;;;5093599;28;20056;-86
2022/12/13 09:20:57;;;;;;;38.97;24.38;;;-0.50;99.90;;;;;;5094454;28;20150;-86
2022/12/13 09:23:23;;;;;;;38.28;24.08;;;-0.90;99.90;;;;;;5094738;28;20076;-86
2022/12/13 09:25:59;;;;;;;39.40;22.98;;;1.20;99.90;;;;;;5076215;28;20063;-86
2022/12/13 09:28:25;;;;;;;;;;;0.90;99.90;;;;;;5096483;28;20051;-86
2022/12/13 09:30:51;;;;;;;39.80;22.65;;;2.10;99.90;;;;;;5078365;28;19920;-87
2022/12/13 09:33:17;;;;;;;36.00;22.77;;;0.80;99.90;;;;;;5115523;28;20051;-86
2022/12/13 09:35:43;;;;;;;32.45;21.90;;;2.40;99.90;;;;;;5116346;28;20050;-86
2022/12/13 09:38:08;;;;;;;35.92;23.30;;;1.30;99.90;;;;;;5116123;28;20489;-86
2022/12/13 09:40:37;;;;;;;38.58;23.20;;;2.40;99.90;;;;;;5087726;28;20063;-87
2022/12/13 09:43:04;;;;;;;33.00;20.98;;;2.80;99.90;;;;;;5095477;28;20052;-86
2022/12/13 09:45:32;;;;;;;31.30;19.42;;;2.70;99.90;;;;;;5095838;28;20461;-87
2022/12/13 09:47:58;;;;;;;32.03;18.70;;;1.50;99.90;;;;;;5098974;28;20085;-87
2022/12/13 09:50:26;;;;;;;31.67;18.95;;;1.70;99.90;;;;;;5082713;28;20134;-87
2022/12/13 09:52:52;;;;;;;38.17;17.20;;;2.80;99.90;;;;;;5083002;28;20134;-87
2022/12/13 09:55:28;;;;;;;30.63;18.00;;;3.10;99.90;;;;;;5100365;28;20047;-88
2022/12/13 09:57:54;;;;;;;34.35;18.73;;;1.90;99.90;;;;;;5099454;28;20143;-86
2022/12/13 10:00:24;;;;;;;32.45;17.60;;;3.20;99.90;;;;;;5099356;28;20055;-87
2022/12/13 10:02:57;;;;;;;30.73;18.05;;;1.80;99.90;;;;;;5116872;27;20122;-87
2022/12/13 10:05:34;;;;;;;32.85;18.08;;;1.80;99.90;;;;;;5085515;28;20044;-87
2022/12/13 10:08:14;;;;;;;32.17;18.88;;;2.20;99.90;;;;;;5078828;28;20059;-87
2022/12/13 10:10:40;;;;;;;31.88;18.38;;;3.30;99.90;;;;;;5104319;27;20417;-88
2022/12/13 10:13:18;;;;;;;31.58;18.35;;;3.20;99.90;;;;;;5110927;28;20044;-88
2022/12/13 10:15:50;;;;;;;35.15;20.15;;;1.80;99.90;;;;;;5086577;27;20043;-87
2022/12/13 10:18:25;;;;;;;32.25;19.05;;;2.90;99.90;;;;;;5084000;28;20055;-87
2022/12/13 10:20:52;;;;;;;33.97;19.13;;;3.00;99.90;;;;;;5088598;28;20549;-87
2022/12/13 10:23:18;;;;;;;35.15;19.60;;;1.60;99.90;;;;;;5109119;27;20132;-87
2022/12/13 10:25:56;;;;;;;32.42;18.83;;;1.70;99.90;;;;;;5098381;28;20094;-87
2022/12/13 10:28:29;;;;;;;30.27;19.05;;;3.40;99.90;;;;;;5081641;28;20159;-87
2022/12/13 10:30:57;;;;;;;31.40;18.42;;;2.90;99.90;;;;;;5081654;28;20517;-86
2022/12/13 10:33:26;;;;;;;31.52;19.55;;;;;;;;;;5081167;28;20134;-86
2022/12/13 10:36:21;;;;;;;34.03;19.02;;;;;;;;;;5097848;27;20141;-86
2022/12/13 10:38:47;;;;;;;33.65;19.23;;;;;;;;;;5089083;27;20351;-86
2022/12/13 10:41:32;;;;;;;32.60;19.60;;;;;;;;;;5129010;27;20098;-86
2022/12/13 10:44:17;;;;;;;33.17;19.33;;;;;;;;;;5118664;27;20070;-84
2022/12/13 10:46:59;;;;;;;30.58;19.85;;;;;;;;;;5110383;28;20127;-84
2022/12/13 10:49:27;;;;;;;29.52;19.00;;;;;;;;;;5109350;28;20196;-85
2022/12/13 10:52:01;;;;;;;28.33;18.58;;;;;;;;;;5131322;27;20043;-84
2022/12/13 10:54:29;;;;;;;34.20;18.48;;;;;;;;;;5109285;27;20043;-85
2022/12/13 10:56:59;;;;;;;27.13;17.90;;;;;;;;;;5095184;28;20058;-85
2022/12/13 10:59:26;;;;;;;29.02;17.60;;;;;;;;;;5076788;28;20084;-84
2022/12/13 11:01:53;;;;;;;30.17;18.25;;;;;;;;;;5093742;28;20044;-85
2022/12/13 11:04:23;;;;;;;26.98;17.23;;;;;;;;;;5109674;27;20118;-85
2022/12/13 11:06:49;;;;;;;25.33;16.80;;;;;;;;;;5138287;27;20134;-85
2022/12/13 11:09:16;;;;;;;23.48;16.33;;;;;;;;;;5111343;27;20051;-83
2022/12/13 11:11:42;;;;;;;27.65;17.67;;;;;;;;;;5113559;27;20054;-83
2022/12/13 11:14:15;;;;;;;24.70;17.23;;;;;;;;;;5113828;27;20079;-83
2022/12/13 11:16:41;;;;;;;25.63;17.20;;;;;;;;;;5131920;27;20051;-81
2022/12/13 11:19:22;;;;;;;23.50;16.50;;;;;;;;;;5114036;27;20054;-85
2022/12/13 11:21:49;;;;;;;22.50;15.88;;;;;;;;;;5113244;27;20078;-84
2022/12/13 11:24:21;;;;;;;24.13;16.83;;;;;;;;;;5113339;27;20466;-82
2022/12/13 11:26:48;;;;;;;26.05;16.95;;;;;;;;;;5111022;27;20134;-81
2022/12/13 11:29:27;;;;;;;22.75;15.85;;;;;;;;;;5105075;28;20055;-85
2022/12/13 11:32:11;;;;;;;21.48;15.60;;;;;;;;;;5113916;27;20054;-85
2022/12/13 11:34:40;;;;;;;19.08;14.70;;;4.00;99.90;;;;;;5115220;27;20407;-85
2022/12/13 11:37:37;;;;;;;24.23;15.40;;;17.20;89.00;;;;;;5115291;27;20115;-86
2022/12/13 11:40:25;;;;;;;22.25;14.90;;;17.20;83.20;;;;;;5085018;28;20046;-87
2022/12/13 11:43:10;;;;;;;19.35;14.27;;;;;;;;;;5095825;28;20048;-86
2022/12/13 11:45:38;;;;;;;20.02;14.18;;;17.20;82.20;;;;;;5115693;28;20051;-87
2022/12/13 11:48:21;;;;;;;19.30;14.00;;;16.80;79.90;;;;;;5096847;28;20059;-87
2022/12/13 11:50:50;;;;;;;20.25;14.35;;;16.60;81.10;;;;;;5080712;28;20055;-87
2022/12/13 11:53:29;;;;;;;19.80;14.02;;;17.50;81.20;;;;;;5079215;28;20043;-87
2022/12/13 11:56:05;;;;;;;21.33;14.60;;;18.60;78.50;;;;;;5078981;28;20101;-86
2022/12/13 11:58:53;;;;;;;19.23;14.27;;;19.50;76.50;;;;;;5113721;28;20052;-87
2022/12/13 12:01:26;;;;;;;17.75;13.25;;;21.10;76.40;;;;;;5079985;28;20228;-87
2022/12/13 12:04:22;;;;;;;18.35;13.38;;;20.70;73.60;;;;;;5112128;28;20062;-87
2022/12/13 12:06:57;;;;;;;16.00;12.18;;;20.20;71.70;;;;;;5096672;28;20448;-87
2022/12/13 12:09:26;;;;;;;18.67;13.15;;;20.10;71.50;;;;;;5079555;28;20069;-87
2022/12/13 12:12:04;;;;;;;16.65;12.50;;;20.60;70.50;;;;;;5079768;28;20047;-87
2022/12/13 12:14:51;;;;;;;17.65;12.15;;;20.80;70.50;;;;;;5080171;28;20059;-86
2022/12/13 12:17:22;;;;;;;17.52;11.82;;;20.70;67.20;;;;;;5080855;28;20185;-87
2022/12/13 12:19:52;;;;;;;16.77;11.70;;;20.60;67.20;;;;;;5098670;28;20043;-88
2022/12/13 12:22:43;;;;;;;15.50;11.95;;;20.30;68.40;;;;;;5080405;28;20063;-87
2022/12/13 12:25:40;;;;;;;16.10;12.13;;;19.90;68.20;;;;;;5113227;28;20081;-87
2022/12/13 12:28:25;;;;;;;15.13;11.13;;;19.70;67.80;;;;;;5079716;28;20059;-88
2022/12/13 12:31:22;;;;;;;15.52;11.40;;;20.30;67.80;;;;;;5097303;28;20204;-87
2022/12/13 12:34:06;;;;;;;14.88;11.35;;;20.90;69.50;;;;;;5113519;28;20083;-89
2022/12/13 12:36:59;;;;;;;15.48;11.70;;;21.60;68.10;;;;;;5113207;28;20451;-87
2022/12/13 12:39:32;;;;;;;14.63;10.85;;;21.50;66.20;;;;;;5076996;28;20379;-87
2022/12/13 12:42:03;;;;;;;14.60;11.05;;;20.70;65.30;;;;;;5076044;28;20153;-86
2022/12/13 12:44:40;;;;;;;15.63;11.23;;;20.20;65.50;;;;;;5076839;28;20044;-87
2022/12/13 12:47:41;;;;;;;14.98;10.63;;;20.50;64.90;;;;;;5087763;28;20484;-87
2022/12/13 12:50:25;;;;;;;13.77;10.65;;;20.50;65.50;;;;;;5086331;28;20386;-87
2022/12/13 12:53:15;;;;;;;16.30;10.88;;;20.40;64.10;;;;;;5094118;28;20080;-87
2022/12/13 12:56:05;;;;;;;17.35;11.07;;;20.10;64.40;;;;;;5060392;28;20136;-87
2022/12/13 12:58:40;;;;;;;15.68;11.30;;;19.50;65.80;;;;;;5075510;28;20051;-88